CDT,Max TemperatureF,Mean TemperatureF,Min TemperatureF,Max Dew PointF,MeanDew PointF,Min DewpointF,Max Humidity, Mean Humidity, Min Humidity, Max Sea Level PressureIn, Mean Sea Level PressureIn, Min Sea Level PressureIn, Max VisibilityMiles, Mean VisibilityMiles, Min VisibilityMiles, Max Wind SpeedMPH, Mean Wind SpeedMPH, Max Gust SpeedMPH,PrecipitationIn, CloudCover, Events, WindDirDegrees
2012-10-1,69,62,53,59,52,48,88,70,49,29.79,29.72,29.69,10,10,10,18,10,22,0.00,1,,356
2012-10-2,73,60,48,54,47,45,87,63,36,29.93,29.85,29.77,10,10,10,13,7,16,0.00,0,,294
2012-10-3,78,66,53,59,54,52,94,73,39,30.11,30.01,29.93,10,10,4,15,6,20,0.00,0,,185
2012-10-4,82,68,53,61,55,52,94,72,37,30.24,30.16,30.11,10,10,0,13,5,20,0.00,0,,189
2012-10-5,66,56,46,61,54,43,100,87,73,30.22,30.10,29.99,10,10,5,22,8,30,0.34,4,Thunderstorm,23
2012-10-6,55,47,39,45,38,30,93,73,38,30.28,30.23,30.17,10,10,10,17,9,21,0.01,3,,355
2012-10-7,57,49,41,45,38,34,93,65,41,30.30,30.24,30.18,10,10,10,12,7,,0.00,2,,335
2012-10-8,60,52,44,45,41,36,93,69,42,30.28,30.20,30.12,10,10,10,10,4,,0.00,2,,238
2012-10-9,66,54,41,54,45,39,93,70,46,30.15,30.06,29.97,10,10,10,17,7,23,0.00,2,,184
2012-10-10,64,55,46,54,42,32,94,61,30,30.29,30.19,30.04,10,10,5,17,8,28,0.00,2,,1
2012-10-11,57,50,44,52,45,37,94,79,62,30.29,30.22,30.18,10,10,10,8,3,,0.00,6,Thunderstorm,104
2012-10-12,59,56,53,57,54,52,100,93,88,30.33,30.24,30.15,10,8,0,13,6,,0.29,7,Thunderstorm,37
2012-10-13,80,70,59,66,62,57,100,86,58,30.21,30.10,29.91,10,5,0,23,7,26,0.00,6,,164
2012-10-14,77,68,60,66,59,52,100,75,47,30.00,29.89,29.79,10,10,3,29,17,36,0.24,4,,219
2012-10-15,75,63,51,54,50,46,88,66,38,30.07,30.01,29.95,10,9,1,9,6,,0.00,0,,226
2012-10-16,78,66,53,55,53,50,94,73,39,29.96,29.85,29.75,10,10,10,22,10,28,0.00,0,,186
2012-10-17,75,66,55,66,58,52,100,80,65,29.75,29.63,29.47,10,10,2,29,16,36,0.28,4,Thunderstorm,204
2012-10-18,66,56,46,52,40,30,100,59,26,29.81,29.75,29.69,10,10,8,24,9,30,0.00,0,,243
2012-10-19,62,55,48,43,39,32,82,56,39,29.87,29.77,29.70,10,10,10,23,12,31,0.00,3,,258
2012-10-20,69,56,42,48,44,41,93,68,38,29.97,29.90,29.87,10,10,10,14,8,17,0.00,0,,192
2012-10-21,80,64,48,66,57,46,93,75,60,29.99,29.95,29.91,10,10,7,20,8,23,0.00,2,,171
2012-10-22,80,70,59,64,57,54,82,69,44,30.08,30.02,29.99,10,10,10,24,11,32,0.00,2,,179
2012-10-23,80,70,59,64,57,52,82,67,50,30.04,29.99,29.95,10,10,4,22,11,30,0.00,1,,178
2012-10-24,80,70,59,66,61,55,94,79,58,30.06,30.00,29.94,10,10,10,17,9,24,0.00,1,,181
2012-10-25,80,64,48,64,60,46,94,77,54,30.11,29.94,29.87,10,10,6,25,13,36,0.18,4,,190
2012-10-26,53,46,39,46,38,32,93,74,47,30.27,30.22,30.11,10,10,7,21,13,24,0.00,5,,5
2012-10-27,57,46,35,34,31,28,81,60,33,30.27,30.21,30.14,10,10,10,17,11,23,0.00,0,,351
2012-10-28,57,45,33,34,31,28,87,63,33,30.24,30.20,30.16,10,10,10,16,9,20,0.00,0,,341
2012-10-29,57,45,33,34,28,21,87,55,25,30.33,30.22,30.11,10,10,7,14,9,17,0.00,0,,326
2012-10-30,64,50,35,37,30,25,75,49,27,30.11,30.01,29.92,10,10,10,14,8,20,0.00,0,,298
2012-10-31,66,54,41,37,34,30,76,52,28,30.02,29.98,29.95,10,10,10,14,6,,0.00,1,,303